Time;durP1;ratioP1;P1;durP2;ratioP2;P2;SDS_P1;SDS_P2;PMS_P1;PMS_P2;Temp;Humidity;BMP_temperature;BMP_pressure;BME280_temperature;BME280_humidity;BME280_pressure;Samples;Min_cycle;Max_cycle;Signal;HPM_P1;HPM_P2
2024/04/16 00:00:39;;;;;;;3.17;0.77;;;;;;;6.26;100.00;99337.84;7418988;19;20056;-77
2024/04/16 00:03:05;;;;;;;4.18;0.60;;;;;;;5.89;100.00;99284.34;7419402;19;20039;-77
2024/04/16 00:05:31;;;;;;;4.57;1.00;;;;;;;5.99;100.00;99284.75;7416141;19;20012;-78
2024/04/16 00:07:57;;;;;;;2.55;0.95;;;;;;;6.51;100.00;99348.06;7425968;19;19998;-78
2024/04/16 00:10:24;;;;;;;1.77;0.73;;;;;;;6.85;100.00;99387.63;7416757;19;20032;-78
2024/04/16 00:12:52;;;;;;;3.70;0.73;;;;;;;6.96;100.00;99397.66;7406551;19;20020;-78
2024/04/16 00:15:19;;;;;;;4.70;1.02;;;;;;;6.92;100.00;99389.06;7404972;19;20034;-79
2024/04/16 00:17:45;;;;;;;2.75;0.65;;;;;;;7.00;100.00;99391.31;7402090;19;20017;-77
2024/04/16 00:20:11;;;;;;;6.10;0.80;;;;;;;6.88;100.00;99353.28;7402375;19;20018;-79
2024/04/16 00:22:36;;;;;;;6.45;0.90;;;;;;;6.94;100.00;99366.13;7401525;19;20035;-79
2024/04/16 00:25:03;;;;;;;3.13;0.70;;;;;;;6.73;100.00;99318.97;7403095;19;20018;-80
2024/04/16 00:27:29;;;;;;;4.95;1.10;;;;;;;6.97;100.00;99358.09;7403582;19;20014;-79
2024/04/16 00:29:59;;;;;;;3.85;0.82;;;;;;;6.89;100.00;99355.00;7414131;19;20003;-77
2024/04/16 00:32:25;;;;;;;1.90;0.32;;;;;;;6.54;100.00;99290.91;7408280;19;20018;-79
2024/04/16 00:34:52;;;;;;;2.88;0.80;;;;;;;6.42;100.00;99281.00;7404702;19;20352;-78
2024/04/16 00:37:19;;;;;;;3.83;0.70;;;;;;;6.84;100.00;99364.03;7403419;19;20014;-77
2024/04/16 00:39:46;;;;;;;5.65;1.00;;;;;;;6.82;100.00;99356.22;7400270;19;20006;-80
2024/04/16 00:42:14;;;;;;;3.45;1.02;;;;;;;6.82;100.00;99352.72;7401875;19;20045;-78
2024/04/16 00:44:41;;;;;;;4.40;1.00;;;;;;;6.72;100.00;99335.69;7403511;19;20460;-79
2024/04/16 00:47:12;;;;;;;3.35;1.20;;;;;;;6.58;100.00;99279.34;7403658;19;20551;-78
2024/04/16 00:49:38;;;;;;;6.45;1.15;;;;;;;6.50;100.00;99307.75;7400407;19;20006;-79
2024/04/16 00:52:06;;;;;;;3.97;1.00;;;;;;;6.56;100.00;99357.47;7401422;19;20305;-81
2024/04/16 00:54:32;;;;;;;2.63;0.88;;;;;;;6.30;100.00;99316.59;7400299;19;20031;-78
2024/04/16 00:56:58;;;;;;;3.38;0.90;;;;;;;5.39;100.00;99181.53;7405867;19;20014;-78
2024/04/16 00:59:25;;;;;;;5.40;1.15;;;;;;;6.29;100.00;99333.31;7401388;19;20031;-80
2024/04/16 01:01:54;;;;;;;3.67;1.00;;;;;;;6.28;100.00;99349.16;7405286;19;20014;-79
2024/04/16 01:04:20;;;;;;;6.47;1.30;;;;;;;6.18;100.00;99321.56;7405008;19;20336;-78
2024/04/16 01:06:49;;;;;;;4.13;1.05;;;;;;;6.45;100.00;99365.00;7407386;19;20006;-77
2024/04/16 01:09:17;;;;;;;5.57;0.90;;;;;;;6.08;100.00;99302.75;7403992;19;20010;-79
2024/04/16 01:11:42;;;;;;;5.03;0.98;;;;;;;6.13;100.00;99311.28;7404429;19;20026;-78
2024/04/16 01:14:12;;;;;;;7.78;0.98;;;;;;;6.12;100.00;99311.34;7401009;19;20034;-79
2024/04/16 01:16:40;;;;;;;5.60;1.15;;;;;;;6.44;100.00;99355.41;7399813;19;20011;-80
2024/04/16 01:19:07;;;;;;;4.72;0.80;;;;;;;6.56;100.00;99360.09;7388706;19;20003;-80
2024/04/16 01:21:34;;;;;;;4.68;1.00;;;;;;;6.28;100.00;99294.78;7396032;19;20003;-78
2024/04/16 01:24:00;;;;;;;6.65;1.30;;;;;;;6.69;100.00;99352.47;7376165;19;20014;-78
2024/04/16 01:26:26;;;;;;;3.20;1.08;;;;;;;6.69;100.00;99340.16;7406803;19;20053;-79
2024/04/16 01:28:51;;;;;;;5.47;0.98;;;;;;;6.68;100.00;99346.34;7404965;19;20011;-78
2024/04/16 01:31:17;;;;;;;4.63;1.30;;;;;;;6.69;100.00;99345.41;7418181;19;20021;-78
2024/04/16 01:33:47;;;;;;;6.97;1.10;;;;;;;6.51;100.00;99313.88;7416481;19;20519;-80
2024/04/16 01:36:12;;;;;;;6.07;1.15;;;;;;;6.20;100.00;99264.53;7408718;19;20014;-76
2024/04/16 01:38:39;;;;;;;3.97;1.10;;;;;;;6.51;100.00;99321.75;7381025;19;20631;-78
2024/04/16 01:41:07;;;;;;;8.07;1.20;;;;;;;6.74;100.00;99368.03;7399966;19;20010;-78
2024/04/16 01:43:33;;;;;;;6.30;0.90;;;;;;;6.56;100.00;99351.34;7398991;19;20060;-78
2024/04/16 01:45:58;;;;;;;5.30;1.25;;;;;;;6.67;100.00;99386.72;7402761;19;20014;-78
2024/04/16 01:48:24;;;;;;;4.78;1.08;;;;;;;6.63;100.00;99382.53;7400692;19;20018;-77
2024/04/16 01:50:50;;;;;;;2.67;0.95;;;;;;;6.56;100.00;99389.03;7393442;19;20010;-78
2024/04/16 01:53:17;;;;;;;6.20;0.60;;;;;;;6.39;100.00;99351.28;7391507;19;20010;-77
2024/04/16 01:55:43;;;;;;;5.88;1.02;;;;;;;6.04;100.00;99332.72;7393796;19;20043;-82
2024/04/16 01:58:09;;;;;;;3.97;0.88;;;;;;;6.27;100.00;99358.81;7395864;19;20011;-76
2024/04/16 02:00:36;;;;;;;3.22;0.63;;;;;;;6.05;100.00;99339.69;7393857;19;20007;-78
2024/04/16 02:03:03;;;;;;;1.60;0.73;;;;;;;5.99;100.00;99347.81;7399385;19;20023;-79
2024/04/16 02:05:29;;;;;;;4.72;0.63;;;;;;;5.84;100.00;99354.59;7397956;19;20028;-79
2024/04/16 02:07:54;;;;;;;4.78;0.80;;;;;;;5.14;100.00;99238.69;7384118;19;20349;-78
2024/04/16 02:10:21;;;;;;;2.63;0.70;;;;;;;5.62;100.00;99327.56;7393072;19;20341;-80
2024/04/16 02:12:47;;;;;;;2.17;0.70;;;;;;;5.33;100.00;99297.34;7396787;19;20007;-80
2024/04/16 02:15:13;;;;;;;5.60;0.93;;;;;;;5.43;100.00;99303.03;7398906;19;20467;-78
2024/04/16 02:17:39;;;;;;;5.25;0.98;;;;;;;5.40;100.00;99301.38;7393958;19;20010;-80
2024/04/16 02:20:07;;;;;;;3.65;0.88;;;;;;;5.43;100.00;99308.28;7392750;19;20047;-78
2024/04/16 02:22:32;;;;;;;3.90;0.60;;;;;;;5.50;100.00;99320.25;7395265;19;20022;-79
2024/04/16 02:24:58;;;;;;;2.80;0.85;;;;;;;5.44;100.00;99297.72;7395257;19;20370;-78
2024/04/16 02:27:25;;;;;;;3.92;1.15;;;;;;;5.74;100.00;99316.53;7395761;19;20019;-78
2024/04/16 02:29:50;;;;;;;6.45;1.20;;;;;;;5.57;100.00;99306.75;7387865;19;20006;-79
2024/04/16 02:32:16;;;;;;;4.25;0.80;;;;;;;5.17;100.00;99249.91;7393845;19;20007;-80
2024/04/16 02:34:41;;;;;;;3.17;0.73;;;;;;;5.48;100.00;99307.16;7399740;19;20045;-79
2024/04/16 02:37:07;;;;;;;3.15;1.10;;;;;;;5.21;100.00;99250.59;7391161;19;20518;-78
2024/04/16 02:39:32;;;;;;;3.20;1.05;;;;;;;5.25;100.00;99249.56;7390960;19;20011;-80
2024/04/16 02:41:58;;;;;;;4.63;0.85;;;;;;;5.26;100.00;99251.25;7393144;19;20014;-80
2024/04/16 02:44:24;;;;;;;3.60;0.82;;;;;;;5.27;100.00;99271.34;7395872;19;20022;-80
2024/04/16 02:46:50;;;;;;;3.00;0.63;;;;;;;5.49;100.00;99334.28;7392858;19;20055;-79
2024/04/16 02:49:16;;;;;;;2.85;0.70;;;;;;;5.15;100.00;99290.25;7390275;19;20011;-78
2024/04/16 02:51:43;;;;;;;7.20;1.48;;;;;;;5.09;100.00;99298.38;7395090;19;20006;-77
2024/04/16 02:54:09;;;;;;;4.07;0.70;;;;;;;5.19;100.00;99332.03;7407358;19;20010;-76
2024/04/16 02:56:34;;;;;;;3.88;0.60;;;;;;;5.02;100.00;99317.91;7400412;19;20039;-79
2024/04/16 02:59:00;;;;;;;2.83;0.52;;;;;;;4.79;100.00;99285.59;7391343;19;20018;-79
2024/04/16 03:01:28;;;;;;;3.45;0.70;;;;;;;5.02;100.00;99318.78;7412482;19;20025;-79
2024/04/16 03:03:56;;;;;;;4.20;0.70;;;;;;;4.53;100.00;99207.16;7388939;19;20363;-79
2024/04/16 03:06:21;;;;;;;2.00;0.70;;;;;;;4.80;100.00;99275.97;7391884;19;20011;-79
2024/04/16 03:08:50;;;;;;;3.97;0.70;;;;;;;5.17;100.00;99339.13;7388461;19;20534;-76
2024/04/16 03:11:16;;;;;;;3.63;0.70;;;;;;;4.98;100.00;99304.06;7392920;19;20034;-78
2024/04/16 03:13:44;;;;;;;1.17;0.63;;;;;;;5.19;100.00;99325.94;7411605;19;20019;-79
2024/04/16 03:16:10;;;;;;;2.72;0.75;;;;;;;5.14;100.00;99312.16;7412177;19;20026;-77
2024/04/16 03:18:35;;;;;;;0.98;0.57;;;;;;;4.94;100.00;99263.13;7378598;19;20030;-79
2024/04/16 03:21:02;;;;;;;2.97;0.70;;;;;;;5.28;100.00;99317.66;7395401;19;20022;-80
2024/04/16 03:23:27;;;;;;;5.35;1.25;;;;;;;4.93;100.00;99264.03;7394550;19;20033;-79
2024/04/16 03:25:53;;;;;;;3.45;0.77;;;;;;;5.14;100.00;99299.03;7392459;19;20026;-78
2024/04/16 03:28:19;;;;;;;3.85;0.90;;;;;;;4.97;100.00;99257.75;7391897;19;20018;-81
2024/04/16 03:30:45;;;;;;;3.85;0.90;;;;;;;5.36;100.00;99323.44;7391813;19;20006;-78
2024/04/16 03:33:12;;;;;;;2.00;0.70;;;;;;;5.29;100.00;99295.75;7395836;19;20014;-78
2024/04/16 03:35:37;;;;;;;4.07;0.80;;;;;;;5.37;100.00;99312.00;7393512;19;20033;-80
2024/04/16 03:38:03;;;;;;;4.97;0.82;;;;;;;5.34;100.00;99322.66;7391218;19;20014;-79
2024/04/16 03:40:28;;;;;;;2.65;0.90;;;;;;;5.33;100.00;99322.72;7387434;19;20031;-79
2024/04/16 03:42:54;;;;;;;2.97;0.68;;;;;;;5.33;100.00;99327.97;7389876;19;20109;-78
2024/04/16 03:45:20;;;;;;;5.97;0.90;;;;;;;5.03;100.00;99267.16;7391442;19;20088;-77
2024/04/16 03:47:45;;;;;;;2.95;0.70;;;;;;;5.12;100.00;99267.59;7399885;19;20028;-78
2024/04/16 03:50:11;;;;;;;3.85;0.63;;;;;;;5.25;100.00;99276.66;7391830;19;20018;-79
2024/04/16 03:52:37;;;;;;;2.92;0.90;;;;;;;5.42;100.00;99298.69;7394338;19;20020;-81
2024/04/16 03:55:05;;;;;;;2.85;1.00;;;;;;;5.42;100.00;99304.81;7394795;19;20033;-78
2024/04/16 03:57:31;;;;;;;4.70;0.93;;;;;;;5.33;100.00;99302.59;7392329;19;20014;-79
2024/04/16 04:02:41;;;;;;;3.13;0.93;;;;;;;5.25;100.00;99281.03;7389698;19;20046;-79
2024/04/16 04:05:08;;;;;;;4.85;0.73;;;;;;;5.40;100.00;99325.00;7393013;19;20015;-79
2024/04/16 04:07:34;;;;;;;2.65;0.75;;;;;;;5.07;100.00;99276.56;7392820;19;20002;-77
2024/04/16 04:10:00;;;;;;;2.22;0.70;;;;;;;5.33;100.00;99302.59;7385046;19;20528;-78
2024/04/16 04:12:26;;;;;;;4.90;0.98;;;;;;;5.18;100.00;99279.63;7392150;19;20017;-77
2024/04/16 04:14:53;;;;;;;2.80;0.50;;;;;;;5.28;100.00;99275.66;7393096;19;20014;-78
2024/04/16 04:17:19;;;;;;;3.90;0.60;;;;;;;5.47;100.00;99294.09;7393382;19;20015;-78
2024/04/16 04:19:45;;;;;;;2.00;0.52;;;;;;;5.54;100.00;99299.00;7388092;19;20095;-80
2024/04/16 04:22:10;;;;;;;1.65;0.63;;;;;;;5.31;100.00;99264.19;7388088;19;20030;-79
2024/04/16 04:24:36;;;;;;;2.70;0.93;;;;;;;5.59;100.00;99318.06;7392123;19;20035;-80
2024/04/16 04:27:03;;;;;;;5.68;0.88;;;;;;;5.51;100.00;99307.00;7395280;19;20029;-77
2024/04/16 04:29:29;;;;;;;3.72;0.60;;;;;;;5.46;100.00;99300.28;7407609;19;20050;-78
2024/04/16 04:31:57;;;;;;;4.28;1.00;;;;;;;5.37;100.00;99298.88;7388543;19;20014;-77
2024/04/16 04:34:24;;;;;;;9.93;1.65;;;;;;;5.44;100.00;99304.72;7387862;19;20017;-78
2024/04/16 04:36:49;;;;;;;3.75;0.82;;;;;;;5.07;100.00;99247.72;7388443;19;20011;-77
2024/04/16 04:39:15;;;;;;;2.45;0.82;;;;;;;5.37;100.00;99298.03;7380638;19;20014;-79
2024/04/16 04:41:41;;;;;;;3.75;0.70;;;;;;;5.45;100.00;99311.69;7388247;19;20017;-78
2024/04/16 04:44:06;;;;;;;5.10;0.70;;;;;;;5.40;100.00;99298.75;7386246;19;20011;-79
2024/04/16 04:46:32;;;;;;;4.22;1.02;;;;;;;5.05;100.00;99257.41;7388272;19;20018;-78
2024/04/16 04:48:57;;;;;;;3.30;0.98;;;;;;;5.21;100.00;99267.19;7385238;19;20095;-78
2024/04/16 04:51:26;;;;;;;3.55;0.80;;;;;;;5.26;100.00;99286.22;7382339;19;20019;-79
2024/04/16 04:53:52;;;;;;;2.75;1.20;;;;;;;5.44;100.00;99310.00;7391916;19;20360;-77
2024/04/16 04:56:17;;;;;;;3.83;0.80;;;;;;;5.46;100.00;99308.16;7394769;19;20011;-78
2024/04/16 04:58:43;;;;;;;3.22;0.73;;;;;;;5.43;100.00;99298.63;7392515;19;20011;-76
2024/04/16 05:01:09;;;;;;;4.28;0.85;;;;;;;5.43;100.00;99282.03;7389919;19;20040;-76
2024/04/16 05:03:36;;;;;;;6.38;0.98;;;;;;;4.73;100.00;99188.81;7394936;19;20103;-78
2024/04/16 05:06:01;;;;;;;5.20;0.80;;;;;;;5.27;100.00;99287.94;7396732;19;20017;-76
2024/04/16 05:08:28;;;;;;;4.68;1.35;;;;;;;5.04;100.00;99248.69;7391662;19;20372;-76
2024/04/16 05:10:56;;;;;;;5.07;0.90;;;;;;;5.18;100.00;99304.09;7388650;19;20022;-79
2024/04/16 05:13:22;;;;;;;4.32;0.95;;;;;;;5.12;100.00;99291.22;7393805;19;20694;-77
2024/04/16 05:15:48;;;;;;;4.03;0.90;;;;;;;4.78;100.00;99220.09;7391536;19;20018;-79
2024/04/16 05:18:13;;;;;;;4.93;1.00;;;;;;;4.95;100.00;99249.09;7396533;19;20018;-77
2024/04/16 05:20:39;;;;;;;4.65;1.05;;;;;;;4.79;100.00;99214.78;7394496;19;20021;-78
2024/04/16 05:23:05;;;;;;;5.35;1.35;;;;;;;5.12;100.00;99249.22;7393468;19;20059;-79
2024/04/16 05:25:31;;;;;;;5.40;1.00;;;;;;;5.13;100.00;99247.47;7394845;19;20031;-78
2024/04/16 05:27:57;;;;;;;6.60;1.38;;;;;;;5.38;100.00;99284.00;7354097;19;20017;-78
2024/04/16 05:30:23;;;;;;;6.88;1.23;;;;;;;4.83;100.00;99200.63;7391305;19;20022;-78
2024/04/16 05:32:53;;;;;;;6.10;1.50;;;;;;;4.75;100.00;99159.91;7395031;19;20127;-78
2024/04/16 05:35:19;;;;;;;6.25;1.17;;;;;;;5.39;100.00;99254.19;7395667;19;20092;-78
2024/04/16 05:37:45;;;;;;;4.38;0.90;;;;;;;5.70;100.00;99274.69;7397355;19;20045;-77
2024/04/16 05:40:10;;;;;;;7.75;1.75;;;;;;;5.82;100.00;99251.38;7405957;19;20426;-78
2024/04/16 05:42:36;;;;;;;5.22;1.17;;;;;;;5.88;100.00;99227.44;7420320;19;20042;-77
2024/04/16 05:45:02;;;;;;;8.57;1.42;;;;;;;5.79;100.00;99213.88;7407371;19;20014;-78
2024/04/16 05:47:32;;;;;;;7.82;1.50;;;;;;;6.13;100.00;99256.09;7398508;19;20011;-77
2024/04/16 05:49:58;;;;;;;4.72;1.30;;;;;;;6.13;100.00;99240.31;7391924;19;20034;-78
2024/04/16 05:52:24;;;;;;;6.80;1.38;;;;;;;5.88;100.00;99227.44;7396032;19;20018;-77
2024/04/16 05:54:52;;;;;;;7.07;1.45;;;;;;;6.23;100.00;99280.16;7393395;19;20022;-76
2024/04/16 05:57:19;;;;;;;4.63;1.50;;;;;;;5.97;100.00;99218.31;7416653;19;20006;-77
2024/04/16 05:59:45;;;;;;;6.40;1.50;;;;;;;6.37;100.00;99266.34;7402550;19;20076;-77
2024/04/16 06:02:12;;;;;;;6.75;1.60;;;;;;;6.39;100.00;99282.91;7391348;19;20018;-77
2024/04/16 06:04:37;;;;;;;6.45;1.67;;;;;;;6.06;100.00;99222.25;7394157;19;20063;-79
2024/04/16 06:07:03;;;;;;;9.02;1.35;;;;;;;6.28;100.00;99260.63;7395975;19;20015;-79
2024/04/16 06:09:31;;;;;;;3.80;1.30;;;;;;;6.36;100.00;99239.19;7324783;19;20039;-79
2024/04/16 06:11:56;;;;;;;6.70;1.60;;;;;;;6.53;100.00;99236.59;7387461;19;20011;-78
2024/04/16 06:14:22;;;;;;;7.15;1.60;;;;;;;6.81;100.00;99256.28;7395207;19;20031;-79
2024/04/16 06:16:49;;;;;;;5.35;1.38;;;;;;;6.69;100.00;99224.41;7394448;19;20026;-81
2024/04/16 06:19:15;;;;;;;8.70;1.85;;;;;;;6.90;100.00;99232.16;7391194;19;20030;-76
2024/04/16 06:21:40;;;;;;;4.85;1.30;;;;;;;7.27;100.00;99265.34;7322846;19;20006;-78
2024/04/16 06:24:09;;;;;;;9.43;1.80;;;;;;;6.90;100.00;99197.97;7392306;19;20006;-77
2024/04/16 06:26:37;;;;;;;7.88;1.40;;;;;;;7.06;100.00;99237.50;7367972;19;20010;-79
2024/04/16 06:29:03;;;;;;;8.50;1.48;;;;;;;6.76;100.00;99200.44;7384118;19;20006;-79
2024/04/16 06:31:30;;;;;;;11.43;1.83;;;;;;;7.03;100.00;99242.00;7385465;19;20035;-79
2024/04/16 06:33:58;;;;;;;9.90;1.55;;;;;;;7.08;100.00;99262.81;7303709;19;20412;-77
2024/04/16 06:36:24;;;;;;;5.97;1.40;;;;;;;6.45;100.00;99175.66;7387450;19;20022;-78
2024/04/16 06:38:50;;;;;;;7.72;1.48;;;;;;;6.99;100.00;99245.69;7387311;19;20007;-77
2024/04/16 06:41:15;;;;;;;8.77;1.90;;;;;;;6.76;100.00;99145.19;7385572;19;20017;-78
2024/04/16 06:43:42;;;;;;;7.68;1.50;;;;;;;7.52;100.00;99204.34;7355298;19;20035;-77
2024/04/16 06:46:08;;;;;;;10.68;1.60;;;;;;;7.62;100.00;99229.25;7391956;19;20010;-78
2024/04/16 06:48:34;;;;;;;12.65;2.20;;;;;;;7.46;100.00;99179.19;7387906;19;20042;-78
2024/04/16 06:51:01;;;;;;;6.88;1.35;;;;;;;7.91;100.00;99209.22;7385749;19;20479;-77
2024/04/16 06:53:26;;;;;;;6.95;1.38;;;;;;;7.62;100.00;99201.13;7385861;19;20026;-80
2024/04/16 06:56:04;;;;;;;6.85;1.83;;;;;;;7.76;100.00;99242.56;7388676;19;20010;-80
2024/04/16 06:58:31;;;;;;;7.05;1.90;;;;;;;7.60;100.00;99212.69;7390845;19;20011;-78
2024/04/16 07:00:57;;;;;;;4.13;1.63;;;;;;;7.51;100.00;99198.22;7385543;19;20100;-77
2024/04/16 07:03:23;;;;;;;6.50;1.42;;;;;;;7.55;100.00;99206.84;7387428;19;20018;-78
2024/04/16 07:05:50;;;;;;;6.10;1.45;;;;;;;7.74;100.00;99240.00;7390471;19;20014;-76
2024/04/16 07:08:18;;;;;;;4.72;1.20;;;;;;;7.79;100.00;99229.22;7390586;19;20081;-81
2024/04/16 07:10:47;;;;;;;4.03;1.13;;;;;;;7.87;100.00;99237.53;7384429;19;20797;-79
2024/04/16 07:13:15;;;;;;;8.30;1.40;;;;;;;7.95;100.00;99226.59;7390359;19;20002;-80
2024/04/16 07:15:41;;;;;;;4.18;1.30;;;;;;;7.74;100.00;99196.97;7386920;19;20002;-81
2024/04/16 07:18:06;;;;;;;9.77;1.65;;;;;;;7.83;100.00;99201.75;7386882;19;20479;-77
2024/04/16 07:20:32;;;;;;;6.72;1.70;;;;;;;7.81;100.00;99237.03;7348970;19;20038;-79
2024/04/16 07:23:01;;;;;;;6.10;1.50;;;;;;;7.31;100.00;99151.88;7397043;19;20014;-79
2024/04/16 07:25:28;;;;;;;8.38;1.65;;;;;;;7.26;100.00;99121.44;7409692;19;20010;-77
2024/04/16 07:27:54;;;;;;;8.00;1.77;;;;;;;7.87;100.00;99226.19;7390802;19;20389;-80
2024/04/16 07:30:19;;;;;;;5.25;1.92;;;;;;;7.36;100.00;99134.06;7385504;19;20010;-79
2024/04/16 07:32:48;;;;;;;5.45;1.45;;;;;;;7.67;100.00;99171.91;7379996;19;20007;-79
2024/04/16 07:35:13;;;;;;;6.75;1.67;;;;;;;7.78;100.00;99197.66;7398461;19;20011;-80
2024/04/16 07:37:39;;;;;;;8.75;1.95;;;;;;;8.05;100.00;99215.44;7389827;19;20078;-79
2024/04/16 07:40:05;;;;;;;4.30;1.70;;;;;;;8.02;100.00;99199.81;7384481;19;20075;-78
2024/04/16 07:42:35;;;;;;;6.82;1.92;;;;;;;8.23;100.00;99208.31;7389897;19;20035;-77
2024/04/16 07:45:01;;;;;;;4.03;1.75;;;;;;;8.20;100.00;99189.16;7400189;19;20010;-77
2024/04/16 07:47:27;;;;;;;7.25;1.73;;;;;;;8.20;100.00;99194.44;7400490;19;20006;-79
2024/04/16 07:49:53;;;;;;;4.05;1.30;;;;;;;8.22;100.00;99205.75;7401804;19;20078;-79
2024/04/16 07:52:18;;;;;;;7.57;1.83;;;;;;;7.90;100.00;99131.94;7406734;19;20067;-81
2024/04/16 07:54:44;;;;;;;2.45;1.20;;;;;;;8.40;100.00;99167.81;7404262;19;20046;-78
2024/04/16 07:57:09;;;;;;;4.38;1.45;;;;;;;8.48;100.00;99133.09;7391731;19;20018;-78
2024/04/16 07:59:35;;;;;;;4.43;1.27;;;;;;;8.95;100.00;99181.28;7386472;19;20018;-81
2024/04/16 08:02:00;;;;;;;5.00;1.45;;;;;;;8.92;100.00;99162.13;7384493;19;20007;-78
2024/04/16 08:04:26;;;;;;;4.00;1.10;;;;;;;9.03;100.00;99163.19;7384377;19;20007;-77
2024/04/16 08:06:51;;;;;;;4.72;1.35;;;;;;;8.68;100.00;99128.31;7386484;19;20583;-79
2024/04/16 08:09:18;;;;;;;3.05;1.40;;;;;;;8.81;100.00;99193.59;7386477;19;20015;-78
2024/04/16 08:11:44;;;;;;;5.30;1.30;;;;;;;8.47;100.00;99148.06;7386031;19;21610;-80
2024/04/16 08:14:16;;;;;;;6.47;1.30;;;;;;;8.73;100.00;99155.28;7383876;19;20010;-76
2024/04/16 08:16:42;;;;;;;4.88;1.08;;;;;;;8.78;100.00;99145.31;7389146;19;20006;-76
2024/04/16 08:19:08;;;;;;;4.70;1.25;;;;;;;8.86;100.00;99151.91;7388270;19;20019;-77
2024/04/16 08:21:34;;;;;;;2.40;0.90;;;;;;;8.76;100.00;99146.34;7383309;19;20003;-78
2024/04/16 08:23:59;;;;;;;4.80;1.27;;;;;;;8.63;100.00;99130.41;7387688;19;20015;-78
2024/04/16 08:26:26;;;;;;;5.38;0.95;;;;;;;8.70;100.00;99144.06;7385033;19;20027;-78
2024/04/16 08:28:51;;;;;;;4.18;0.90;;;;;;;8.74;100.00;99159.63;7393428;19;20025;-78
2024/04/16 08:31:17;;;;;;;3.50;1.10;;;;;;;8.54;100.00;99115.09;7388977;19;20041;-79
2024/04/16 08:33:42;;;;;;;2.05;0.80;;;;;;;8.61;100.00;99120.88;7394912;19;20074;-78
2024/04/16 08:36:08;;;;;;;2.42;0.80;;;;;;;8.57;100.00;99124.63;7391734;19;20481;-77
2024/04/16 08:38:34;;;;;;;2.78;1.15;;;;;;;8.29;100.00;99083.16;7392276;19;20025;-78
2024/04/16 08:41:04;;;;;;;5.68;1.20;;;;;;;8.59;100.00;99138.56;7386960;19;20022;-76
2024/04/16 08:43:34;;;;;;;5.38;1.45;;;;;;;8.16;100.00;99067.22;7374862;19;20014;-77
2024/04/16 08:46:02;;;;;;;6.20;1.40;;;;;;;8.50;100.00;99131.22;7397074;19;20014;-78
2024/04/16 08:48:29;;;;;;;4.28;1.10;;;;;;;8.36;100.00;99153.94;7393872;19;20043;-77
2024/04/16 08:50:58;;;;;;;9.02;2.15;;;;;;;7.79;100.00;99113.25;7389238;19;20022;-76
2024/04/16 08:53:26;;;;;;;7.03;1.30;;;;;;;7.58;100.00;99107.38;7409885;19;20010;-77
2024/04/16 08:55:52;;;;;;;4.95;1.10;;;;;;;7.59;100.00;99137.22;7401675;19;20015;-77
2024/04/16 08:58:18;;;;;;;5.32;1.13;;;;;;;7.45;100.00;99153.78;7372876;19;20714;-77
2024/04/16 09:00:46;;;;;;;4.65;1.30;;;;;;;7.34;100.00;99140.34;7390649;19;20143;-77
2024/04/16 09:03:14;;;;;;;8.50;1.60;;;;;;;7.12;100.00;99130.09;7395529;19;20006;-75
2024/04/16 09:05:40;;;;;;;3.92;1.38;;;;;;;6.54;100.00;99070.00;7391833;19;20396;-77
2024/04/16 09:08:08;;;;;;;4.32;1.80;;;;;;;6.79;100.00;99130.06;7396203;19;20014;-77
2024/04/16 09:10:35;;;;;;;4.38;1.83;;;;;;;6.74;100.00;99150.53;7395147;19;20017;-77
2024/04/16 09:13:10;;;;;;;3.58;1.38;;;;;;;6.54;100.00;99133.13;7376406;19;20007;-76
2024/04/16 09:15:37;;;;;;;2.67;1.48;;;;;;;5.75;100.00;99039.78;7400577;19;20029;-77
2024/04/16 09:18:04;;;;;;;4.00;1.42;;;;;;;5.83;100.00;99056.00;7402268;19;20016;-76
2024/04/16 09:20:30;;;;;;;2.45;0.95;;;;;;;6.38;100.00;99136.59;7396747;19;20078;-78
2024/04/16 09:22:56;;;;;;;4.47;1.30;;;;;;;6.34;100.00;99142.00;7393725;19;20721;-79
2024/04/16 09:25:24;;;;;;;9.13;1.98;;;;;;;6.19;100.00;99091.97;7362754;19;20021;-77
2024/04/16 09:27:55;;;;;;;4.53;1.50;;;;;;;6.45;100.00;99127.47;7363431;19;20975;-78
2024/04/16 09:30:22;;;;;;;3.25;1.20;;;;;;;6.51;100.00;99130.63;7360356;19;20021;-79
2024/04/16 09:33:03;;;;;;;3.88;1.85;;;;;;;6.47;100.00;99122.97;7355814;19;20018;-77
2024/04/16 09:35:32;;;;;;;1.45;1.20;;;;;;;6.53;100.00;99120.03;7395779;19;20022;-80
2024/04/16 09:38:08;;;;;;;1.95;1.10;;;;;;;6.17;100.00;99075.41;7388839;19;20083;-80
2024/04/16 09:40:36;;;;;;;4.07;1.30;;;;;;;6.05;100.00;99052.38;7395453;19;20022;-77
2024/04/16 09:43:03;;;;;;;2.85;1.42;;;;;;;6.19;100.00;99076.19;7377399;19;20034;-77
2024/04/16 09:45:30;;;;;;;2.15;1.50;;;;;;;6.54;100.00;99125.22;7401941;19;20477;-79
2024/04/16 09:47:57;;;;;;;4.30;1.80;;;;;;;6.08;100.00;99034.69;7391840;19;20494;-78
2024/04/16 09:50:24;;;;;;;4.80;2.78;;;;;;;6.70;100.00;99112.13;7365502;19;20034;-77
2024/04/16 09:52:54;;;;;;;2.70;1.90;;;;;;;6.60;100.00;99071.47;7411847;19;20002;-78
2024/04/16 09:55:24;;;;;;;3.08;1.60;;;;;;;6.82;100.00;99082.56;7411810;19;20013;-78
2024/04/16 09:57:52;;;;;;;3.45;2.00;;;;;;;6.22;100.00;98989.28;7369379;19;20007;-79
2024/04/16 10:00:19;;;;;;;4.20;2.40;;;;;;;6.59;100.00;99036.44;7399173;19;20022;-79
2024/04/16 10:02:46;;;;;;;4.15;1.60;;;;;;;6.87;100.00;99090.22;7388421;19;20581;-79
2024/04/16 10:05:14;;;;;;;2.97;1.80;;;;;;;6.84;100.00;99100.91;7390834;19;20396;-78
2024/04/16 10:07:44;;;;;;;4.30;2.03;;;;;;;6.42;100.00;99039.06;7396344;19;20038;-79
2024/04/16 10:10:10;;;;;;;3.08;2.00;;;;;;;5.92;100.00;98950.53;7396472;19;20014;-79
2024/04/16 10:12:40;;;;;;;3.47;1.90;;;;;;;6.81;100.00;99103.69;7391388;19;20356;-79
2024/04/16 10:15:06;;;;;;;5.50;2.72;;;;;;;6.79;100.00;99068.69;7390087;19;20034;-78
2024/04/16 10:17:32;;;;;;;4.30;2.20;;;;;;;6.72;100.00;99049.78;7394610;19;20011;-77
2024/04/16 10:20:15;;;;;;;3.58;2.03;;;;;;;6.91;100.00;99068.94;7400473;19;20003;-75
2024/04/16 10:22:40;;;;;;;4.22;2.00;;;;;;;6.79;100.00;99034.50;7409696;19;20014;-77
2024/04/16 10:25:06;;;;;;;5.22;2.25;;;;;;;7.16;100.00;99096.56;7395505;19;20069;-78
2024/04/16 10:27:31;;;;;;;2.05;1.42;;;;;;;6.39;100.00;98964.75;7398289;19;20046;-79
2024/04/16 10:30:07;;;;;;;2.08;1.30;;;;;;;6.95;100.00;99059.06;7395826;19;20021;-76
2024/04/16 10:32:42;;;;;;;2.05;1.70;;;;;;;6.86;100.00;99038.53;7387749;19;20675;-78
2024/04/16 10:35:08;;;;;;;3.38;1.77;;;;;;;6.82;100.00;99015.94;7390994;19;20011;-78
2024/04/16 10:37:35;;;;;;;2.25;1.80;;;;;;;7.19;100.00;99036.69;7390503;19;20017;-77
2024/04/16 10:40:00;;;;;;;6.68;2.85;;;;;;;7.41;100.00;99041.63;7388430;19;20014;-77
2024/04/16 10:42:28;;;;;;;5.55;2.35;;;;;;;7.65;100.00;99049.94;7388579;19;20099;-77
2024/04/16 10:44:56;;;;;;;4.97;1.90;;;;;;;7.68;100.00;99044.50;7388966;19;20010;-76
2024/04/16 10:47:25;;;;;;;2.85;1.38;;;;;;;7.27;100.00;98963.38;7393410;19;20017;-77
2024/04/16 10:49:52;;;;;;;3.92;2.53;;;;;;;7.77;100.00;99038.69;7394350;19;20011;-78
2024/04/16 10:52:19;;;;;;;2.45;1.48;;;;;;;7.67;100.00;99005.91;7379861;19;20022;-79
2024/04/16 10:54:50;;;;;;;2.17;0.85;;;;;;;7.92;100.00;99037.81;7397779;19;20045;-79
2024/04/16 10:57:19;;;;;;;1.35;0.98;;;;;;;7.42;100.00;98935.34;7395952;19;20007;-78
2024/04/16 10:59:47;;;;;;;2.35;1.23;;;;;;;7.86;100.00;98974.09;7394708;19;20608;-79
2024/04/16 11:02:13;;;;;;;5.43;2.03;;;;;;;7.95;100.00;98998.13;7391514;19;20018;-77
2024/04/16 11:04:39;;;;;;;2.80;1.00;;;;;;;7.68;100.00;98950.50;7396016;19;20077;-78
2024/04/16 11:07:06;;;;;;;5.28;1.00;;;;;;;8.04;100.00;99009.91;7396061;19;20010;-78
2024/04/16 11:09:32;;;;;;;2.92;1.27;;;;;;;7.89;100.00;98982.66;7394998;19;20014;-78
2024/04/16 11:12:00;;;;;;;2.78;1.10;;;;;;;7.65;100.00;98934.03;7367944;19;20028;-77
2024/04/16 11:14:26;;;;;;;2.05;0.90;;;;;;;8.24;100.00;98985.00;7393265;19;20022;-78
2024/04/16 11:16:52;;;;;;;4.97;2.70;;;;;;;8.67;100.00;99025.47;7390645;19;20078;-79
2024/04/16 11:19:19;;;;;;;3.85;1.23;;;;;;;8.89;100.00;99015.31;7388073;19;20006;-78
2024/04/16 11:21:46;;;;;;;3.90;1.10;;;;;;;8.84;100.00;99013.91;7386330;19;20025;-78
2024/04/16 11:24:13;;;;;;;2.00;0.98;;;;;;;8.75;100.00;98995.06;7393767;19;20019;-78
2024/04/16 11:26:40;;;;;;;3.47;1.02;;;;;;;9.08;100.00;99013.25;7389893;19;20006;-79
2024/04/16 11:29:06;;;;;;;12.82;6.55;;;;;;;9.35;100.00;99007.13;7390341;19;20677;-78
2024/04/16 11:31:33;;;;;;;2.13;1.30;;;;;;;9.27;100.00;98935.47;7391328;19;20093;-77
2024/04/16 11:33:59;;;;;;;2.65;0.80;;;;;;;9.75;100.00;99005.44;7389907;19;20135;-77